createdAt,value
2023-01-10T00:00:23.984Z,9.15
2023-01-10T00:02:51.906Z,9.55
2023-01-10T00:07:48.015Z,9.15
2023-01-10T00:10:15.868Z,9.40
2023-01-10T00:13:00.971Z,9.98
2023-01-10T00:15:28.343Z,8.85
2023-01-10T00:17:55.661Z,8.35
2023-01-10T00:20:23.052Z,9.82
2023-01-10T00:22:51.797Z,9.07
2023-01-10T00:25:21.045Z,10.48
2023-01-10T00:27:57.981Z,8.88
2023-01-10T00:30:25.469Z,8.37
2023-01-10T00:32:57.420Z,9.25
2023-01-10T00:35:24.791Z,8.35
2023-01-10T00:38:01.510Z,8.95
2023-01-10T00:40:31.191Z,10.82
2023-01-10T00:43:16.343Z,8.90
2023-01-10T00:45:45.485Z,9.80
2023-01-10T00:48:16.793Z,9.73
2023-01-10T00:50:45.923Z,9.27
2023-01-10T00:53:17.420Z,9.82
2023-01-10T00:55:47.916Z,9.52
2023-01-10T00:58:16.235Z,9.70
2023-01-10T01:00:49.465Z,8.38
2023-01-10T01:03:18.469Z,8.77
2023-01-10T01:05:46.658Z,9.30
2023-01-10T01:08:21.953Z,8.15
2023-01-10T01:10:52.591Z,8.25
2023-01-10T01:13:21.513Z,8.88
2023-01-10T01:15:49.328Z,7.97
2023-01-10T01:18:17.652Z,8.30
2023-01-10T01:20:45.711Z,8.85
2023-01-10T01:23:13.292Z,8.40
2023-01-10T01:25:42.018Z,8.85
2023-01-10T01:28:10.194Z,8.50
2023-01-10T01:30:37.756Z,8.35
2023-01-10T01:33:05.280Z,8.63
2023-01-10T01:35:35.672Z,7.90
2023-01-10T01:38:03.418Z,9.20
2023-01-10T01:40:44.311Z,7.93
2023-01-10T01:43:20.526Z,8.45
2023-01-10T01:45:48.313Z,8.02
2023-01-10T01:48:19.141Z,8.27
2023-01-10T01:50:51.341Z,7.35
2023-01-10T01:53:25.052Z,6.45
2023-01-10T01:55:55.231Z,7.25
2023-01-10T01:58:26.672Z,6.70
2023-01-10T02:00:54.323Z,6.78
2023-01-10T02:03:25.312Z,6.55
2023-01-10T02:05:54.914Z,5.60
2023-01-10T02:08:22.509Z,5.97
2023-01-10T02:10:54.297Z,6.90
2023-01-10T02:13:34.053Z,5.57
2023-01-10T02:16:04.832Z,7.30
2023-01-10T02:18:32.329Z,6.43
2023-01-10T02:21:11.038Z,6.03
2023-01-10T02:24:02.934Z,5.93
2023-01-10T02:26:44.486Z,5.75
2023-01-10T02:29:21.535Z,6.25
2023-01-10T02:32:11.790Z,5.28
2023-01-10T02:34:45.555Z,5.50
2023-01-10T02:37:16.044Z,5.57
2023-01-10T02:39:49.131Z,5.28
2023-01-10T02:42:19.686Z,5.10
2023-01-10T02:44:52.751Z,5.28
2023-01-10T02:47:21.756Z,5.13
2023-01-10T02:52:35.512Z,6.20
2023-01-10T02:55:03.902Z,4.88
2023-01-10T02:57:42.006Z,5.55
2023-01-10T03:00:16.112Z,4.38
2023-01-10T03:02:52.465Z,4.90
2023-01-10T03:05:29.858Z,4.93
2023-01-10T03:08:04.636Z,5.25
2023-01-10T03:10:34.750Z,4.40
2023-01-10T03:13:05.959Z,4.88
2023-01-10T03:15:41.296Z,5.10
2023-01-10T03:18:13.655Z,4.95
2023-01-10T03:20:47.505Z,4.82
2023-01-10T03:23:19.248Z,4.38
2023-01-10T03:25:47.821Z,4.63
2023-01-10T03:28:17.108Z,5.38
2023-01-10T03:30:47.620Z,4.47
2023-01-10T03:33:18.977Z,4.10
2023-01-10T03:35:52.393Z,3.92
2023-01-10T03:38:26.867Z,4.03
2023-01-10T03:40:56.646Z,4.20
2023-01-10T03:43:45.853Z,4.00
2023-01-10T03:46:26.013Z,3.58
2023-01-10T03:48:56.004Z,4.18
2023-01-10T03:51:26.772Z,4.65
2023-01-10T03:53:54.126Z,4.95
2023-01-10T03:56:24.465Z,4.03
2023-01-10T03:58:51.910Z,5.47
2023-01-10T04:01:21.121Z,5.25
2023-01-10T04:03:49.651Z,4.40
2023-01-10T04:06:24.102Z,5.20
2023-01-10T04:08:51.548Z,5.57
2023-01-10T04:11:18.958Z,4.70
2023-01-10T04:13:48.568Z,5.25
2023-01-10T04:16:16.935Z,4.30
2023-01-10T04:18:49.252Z,7.40
2023-01-10T04:21:17.000Z,5.80
2023-01-10T04:23:46.390Z,5.07
2023-01-10T04:26:16.916Z,5.03
2023-01-10T04:28:47.229Z,4.72
2023-01-10T04:31:18.039Z,5.68
2023-01-10T04:33:45.520Z,5.63
2023-01-10T04:36:13.241Z,5.43
2023-01-10T04:38:43.412Z,4.97
2023-01-10T04:41:15.395Z,4.78
2023-01-10T04:43:45.219Z,5.18
2023-01-10T04:46:13.286Z,4.80
2023-01-10T04:48:43.265Z,5.72
2023-01-10T04:51:10.747Z,5.25
2023-01-10T04:53:42.223Z,6.13
2023-01-10T04:56:19.149Z,5.10
2023-01-10T04:58:53.055Z,4.17
2023-01-10T05:01:23.670Z,4.82
2023-01-10T05:03:53.287Z,4.63
2023-01-10T05:06:29.041Z,5.43
2023-01-10T05:09:04.788Z,4.30
2023-01-10T05:11:35.770Z,4.95
2023-01-10T05:14:05.025Z,5.28
2023-01-10T05:16:42.401Z,4.68
2023-01-10T05:19:13.187Z,4.00
2023-01-10T05:21:41.797Z,4.25
2023-01-10T05:24:11.556Z,4.10
2023-01-10T05:26:46.731Z,3.65
2023-01-10T05:29:15.713Z,5.10
2023-01-10T05:31:49.352Z,4.75
2023-01-10T05:34:19.609Z,4.30
2023-01-10T05:36:49.736Z,4.28
2023-01-10T05:39:24.496Z,4.88
2023-01-10T05:41:58.305Z,4.05
2023-01-10T05:44:32.281Z,4.43
2023-01-10T05:47:07.115Z,3.90
2023-01-10T05:49:36.003Z,4.75
2023-01-10T05:52:03.892Z,4.45
2023-01-10T05:57:00.447Z,4.38
2023-01-10T05:59:30.171Z,4.43
2023-01-10T06:01:59.413Z,4.10
2023-01-10T06:04:27.195Z,5.25
2023-01-10T06:06:54.748Z,4.95
2023-01-10T06:09:23.533Z,4.40
2023-01-10T06:11:50.970Z,4.65
2023-01-10T06:14:23.560Z,3.92
2023-01-10T06:16:52.797Z,4.88
2023-01-10T06:19:23.813Z,4.95
2023-01-10T06:22:00.111Z,4.07
2023-01-10T06:24:27.887Z,4.07
2023-01-10T06:29:26.233Z,4.05
2023-01-10T06:32:00.493Z,5.05
2023-01-10T06:34:30.054Z,5.65
2023-01-10T06:36:58.414Z,4.55
2023-01-10T06:39:26.292Z,4.78
2023-01-10T06:41:53.622Z,4.43
2023-01-10T06:44:21.815Z,4.80
2023-01-10T06:46:52.448Z,4.75
2023-01-10T06:49:19.948Z,4.63
2023-01-10T06:51:51.656Z,4.55
2023-01-10T06:54:19.094Z,4.18
2023-01-10T06:56:49.452Z,4.00
2023-01-10T06:59:19.214Z,5.32
2023-01-10T07:01:46.775Z,5.70
2023-01-10T07:04:14.560Z,4.65
2023-01-10T07:06:43.992Z,4.95
2023-01-10T07:09:14.147Z,4.82
2023-01-10T07:11:41.700Z,4.97
2023-01-10T07:14:09.823Z,5.25
2023-01-10T07:16:39.604Z,4.25
2023-01-10T07:19:08.813Z,4.40
2023-01-10T07:21:38.119Z,4.43
2023-01-10T07:24:06.599Z,6.68
2023-01-10T07:26:35.982Z,5.32
2023-01-10T07:29:03.600Z,5.60
2023-01-10T07:31:32.882Z,7.07
2023-01-10T07:34:00.493Z,6.15
2023-01-10T07:36:28.057Z,6.95
2023-01-10T07:38:55.719Z,8.27
2023-01-10T07:41:26.247Z,6.95
2023-01-10T07:43:55.635Z,6.65
2023-01-10T07:46:23.064Z,6.05
2023-01-10T07:48:52.791Z,6.38
2023-01-10T07:51:21.551Z,7.00
2023-01-10T07:53:53.667Z,6.72
2023-01-10T07:56:21.573Z,5.63
2023-01-10T08:01:17.539Z,8.00
2023-01-10T08:03:44.933Z,7.03
2023-01-10T08:06:12.372Z,5.90
2023-01-10T08:08:39.787Z,7.57
2023-01-10T08:11:10.890Z,6.18
2023-01-10T08:13:43.083Z,6.00
2023-01-10T08:16:11.085Z,5.70
2023-01-10T08:18:43.640Z,7.15
2023-01-10T08:21:11.421Z,6.90
2023-01-10T08:23:39.376Z,5.53
2023-01-10T08:26:15.181Z,6.93
2023-01-10T08:28:44.949Z,6.65
2023-01-10T08:31:16.434Z,7.32
2023-01-10T08:33:45.156Z,5.75
2023-01-10T08:36:26.638Z,7.88
2023-01-10T08:38:56.070Z,6.78
2023-01-10T08:41:26.048Z,6.80
2023-01-10T08:43:53.632Z,6.55
2023-01-10T08:46:21.533Z,6.15
2023-01-10T08:48:51.731Z,6.22
2023-01-10T08:51:21.563Z,6.35
2023-01-10T08:53:51.377Z,6.70
2023-01-10T08:56:19.033Z,6.43
2023-01-10T08:58:46.595Z,6.75
2023-01-10T09:01:14.514Z,5.68
2023-01-10T09:03:42.329Z,7.47
2023-01-10T09:06:13.546Z,5.40
2023-01-10T09:08:49.511Z,5.63
2023-01-10T09:11:19.952Z,5.88
2023-01-10T09:13:49.654Z,7.40
2023-01-10T09:16:23.987Z,5.43
2023-01-10T09:18:51.544Z,5.32
2023-01-10T09:21:22.256Z,6.03
2023-01-10T09:23:49.876Z,6.75
2023-01-10T09:26:17.632Z,5.50
2023-01-10T09:28:53.829Z,5.78
2023-01-10T09:31:21.189Z,5.45
2023-01-10T09:33:50.850Z,5.78
2023-01-10T09:36:19.891Z,5.15
2023-01-10T09:38:52.964Z,6.22
2023-01-10T09:41:49.683Z,6.05
2023-01-10T09:44:21.562Z,5.93
2023-01-10T09:46:54.639Z,5.20
2023-01-10T09:49:26.069Z,6.90
2023-01-10T09:51:57.088Z,5.82
2023-01-10T09:54:27.664Z,7.55
2023-01-10T09:56:56.075Z,6.00
2023-01-10T09:59:29.073Z,5.70
2023-01-10T10:02:00.361Z,5.45
2023-01-10T10:04:30.695Z,6.70
2023-01-10T10:06:59.653Z,5.78
2023-01-10T10:09:27.748Z,5.70
2023-01-10T10:12:05.374Z,5.32
2023-01-10T10:14:47.708Z,7.47
2023-01-10T10:17:37.720Z,7.38
2023-01-10T10:20:21.730Z,6.22
2023-01-10T10:22:53.691Z,7.03
2023-01-10T10:25:31.985Z,5.35
2023-01-10T10:28:05.468Z,5.88
2023-01-10T10:30:46.397Z,5.90
2023-01-10T10:33:31.638Z,5.85
2023-01-10T10:36:04.841Z,5.95
2023-01-10T10:38:38.533Z,5.00
2023-01-10T10:41:17.637Z,5.18
2023-01-10T10:43:49.434Z,6.30
2023-01-10T10:46:19.051Z,5.82
2023-01-10T10:48:50.401Z,6.07
2023-01-10T10:51:21.863Z,6.38
2023-01-10T10:53:55.132Z,5.88
2023-01-10T10:56:25.196Z,5.85
2023-01-10T10:58:58.668Z,6.75
2023-01-10T11:01:30.072Z,5.70
2023-01-10T11:04:00.748Z,5.68
2023-01-10T11:06:34.319Z,6.53
2023-01-10T11:09:04.608Z,5.45
2023-01-10T11:11:34.006Z,4.50
2023-01-10T11:14:03.287Z,5.97
2023-01-10T11:16:31.834Z,5.80
2023-01-10T11:19:19.330Z,6.38
2023-01-10T11:21:48.783Z,6.00
2023-01-10T11:24:23.020Z,6.25
2023-01-10T11:26:50.717Z,7.00
2023-01-10T11:29:23.023Z,5.15
2023-01-10T11:31:51.460Z,4.75
2023-01-10T11:34:24.599Z,5.35
2023-01-10T11:36:57.208Z,4.70
2023-01-10T11:39:28.856Z,5.57
2023-01-10T11:41:58.361Z,5.32
2023-01-10T11:44:26.812Z,5.45
2023-01-10T11:49:43.657Z,6.78
2023-01-10T11:52:19.431Z,5.03
2023-01-10T11:54:58.591Z,7.63
2023-01-10T11:57:33.692Z,5.07
2023-01-10T12:00:03.147Z,4.80
2023-01-10T12:02:51.524Z,5.25
2023-01-10T12:05:20.678Z,5.35
2023-01-10T12:07:59.678Z,5.70
2023-01-10T12:10:29.559Z,5.07
2023-01-10T12:13:00.966Z,5.32
2023-01-10T12:15:32.119Z,5.32
2023-01-10T12:18:02.712Z,15.38
2023-01-10T12:20:38.620Z,4.95
2023-01-10T12:23:17.684Z,4.88
2023-01-10T12:25:49.028Z,6.47
2023-01-10T12:28:18.595Z,4.40
2023-01-10T12:30:51.804Z,5.50
2023-01-10T12:33:26.085Z,5.07
2023-01-10T12:35:57.858Z,5.47
2023-01-10T12:38:47.473Z,5.13
2023-01-10T12:41:37.737Z,5.35
2023-01-10T12:44:11.302Z,4.80
2023-01-10T12:47:06.015Z,5.30
2023-01-10T12:49:35.135Z,4.75
2023-01-10T12:52:08.692Z,6.78
2023-01-10T12:54:48.585Z,4.43
2023-01-10T12:57:26.860Z,5.18
2023-01-10T12:59:55.250Z,6.65
2023-01-10T13:02:28.358Z,4.47
2023-01-10T13:04:58.089Z,5.18
2023-01-10T13:07:28.295Z,4.50
2023-01-10T13:09:58.619Z,4.63
2023-01-10T13:12:36.974Z,4.18
2023-01-10T13:15:08.159Z,4.43
2023-01-10T13:17:40.243Z,5.22
2023-01-10T13:20:35.109Z,5.38
2023-01-10T13:23:10.077Z,4.32
2023-01-10T13:25:41.969Z,4.50
2023-01-10T13:28:18.725Z,6.78
2023-01-10T13:30:54.894Z,3.35
2023-01-10T13:33:23.875Z,4.63
2023-01-10T13:35:58.435Z,3.90
2023-01-10T13:38:28.048Z,4.63
2023-01-10T13:41:09.568Z,3.85
2023-01-10T13:44:02.216Z,3.83
2023-01-10T13:46:49.154Z,4.18
2023-01-10T13:49:25.365Z,4.28
2023-01-10T13:52:13.873Z,4.13
2023-01-10T13:54:55.800Z,4.18
2023-01-10T13:57:45.022Z,3.83
2023-01-10T14:00:39.990Z,4.43
2023-01-10T14:03:07.658Z,4.05
2023-01-10T14:05:36.367Z,4.13
2023-01-10T14:08:05.856Z,4.30
2023-01-10T14:10:34.010Z,3.92
2023-01-10T14:13:10.718Z,3.92
2023-01-10T14:15:40.848Z,4.23
2023-01-10T14:18:22.288Z,2.95
2023-01-10T14:20:56.857Z,3.03
2023-01-10T14:23:28.722Z,5.03
2023-01-10T14:26:00.641Z,4.60
2023-01-10T14:28:29.526Z,3.80
2023-01-10T14:31:03.084Z,3.63
2023-01-10T14:33:30.927Z,3.42
2023-01-10T14:36:00.534Z,3.25
2023-01-10T14:38:29.385Z,4.18
2023-01-10T14:40:59.856Z,3.03
2023-01-10T14:43:39.447Z,2.95
2023-01-10T14:46:12.059Z,3.85
2023-01-10T14:48:41.810Z,4.03
2023-01-10T14:51:22.438Z,5.72
2023-01-10T14:53:58.599Z,3.40
2023-01-10T14:56:26.973Z,3.65
2023-01-10T14:58:54.608Z,3.17
2023-01-10T15:01:25.477Z,3.20
2023-01-10T15:03:53.785Z,3.70
2023-01-10T15:06:26.963Z,3.90
2023-01-10T15:09:01.269Z,3.85
2023-01-10T15:11:29.738Z,3.40
2023-01-10T15:14:00.111Z,4.68
2023-01-10T15:16:29.757Z,4.57
2023-01-10T15:18:58.218Z,4.53
2023-01-10T15:21:25.883Z,4.68
2023-01-10T15:23:53.318Z,3.03
2023-01-10T15:26:22.189Z,3.25
2023-01-10T15:29:03.096Z,3.47
2023-01-10T15:31:32.016Z,4.18
2023-01-10T15:34:02.683Z,3.05
2023-01-10T15:36:30.351Z,2.50
2023-01-10T15:38:57.739Z,3.72
2023-01-10T15:41:27.983Z,3.88
2023-01-10T15:43:55.429Z,4.07
2023-01-10T15:46:23.792Z,3.38
2023-01-10T15:49:06.488Z,3.92
2023-01-10T15:51:35.741Z,3.80
2023-01-10T15:54:04.799Z,4.32
2023-01-10T15:56:36.011Z,2.92
2023-01-10T15:59:07.733Z,3.63
2023-01-10T16:01:35.407Z,3.60
2023-01-10T16:04:11.819Z,3.95
2023-01-10T16:06:42.545Z,4.68
2023-01-10T16:09:18.444Z,3.17
2023-01-10T16:12:08.586Z,6.05
2023-01-10T16:14:36.107Z,3.58
2023-01-10T16:17:04.171Z,3.17
2023-01-10T16:19:34.564Z,3.45
2023-01-10T16:22:05.518Z,4.30
2023-01-10T16:27:03.021Z,4.32
2023-01-10T16:29:36.812Z,4.65
2023-01-10T16:32:13.615Z,5.85
2023-01-10T16:34:42.330Z,6.53
2023-01-10T16:37:09.800Z,4.97
2023-01-10T16:39:37.438Z,16.40
2023-01-10T16:42:22.652Z,5.07
2023-01-10T16:44:50.028Z,9.98
2023-01-10T16:47:20.368Z,4.03
2023-01-10T16:49:49.417Z,4.72
2023-01-10T16:52:16.865Z,4.03
2023-01-10T16:54:52.585Z,5.03
2023-01-10T16:57:22.054Z,5.10
2023-01-10T16:59:49.468Z,4.75
2023-01-10T17:02:26.239Z,3.55
2023-01-10T17:04:55.098Z,4.30
2023-01-10T17:07:22.716Z,4.30
2023-01-10T17:09:50.476Z,4.03
2023-01-10T17:12:19.301Z,3.72
2023-01-10T17:14:48.089Z,12.10
2023-01-10T17:17:18.418Z,8.20
2023-01-10T17:19:47.121Z,5.63
2023-01-10T17:22:15.991Z,10.52
2023-01-10T17:24:43.347Z,15.13
2023-01-10T17:27:10.712Z,13.40
2023-01-10T17:29:38.396Z,14.23
2023-01-10T17:32:06.146Z,18.55
2023-01-10T17:34:37.347Z,10.25
2023-01-10T17:37:05.113Z,12.00
2023-01-10T17:39:37.715Z,14.45
2023-01-10T17:42:05.538Z,10.05
2023-01-10T17:44:34.766Z,5.30
2023-01-10T17:47:02.914Z,8.45
2023-01-10T17:49:30.375Z,3.83
2023-01-10T17:51:58.752Z,2.58
2023-01-10T17:54:30.436Z,3.78
2023-01-10T17:56:59.417Z,2.97
2023-01-10T17:59:26.972Z,3.00
2023-01-10T18:01:54.453Z,3.63
2023-01-10T18:04:22.012Z,3.17
2023-01-10T18:06:51.970Z,3.80
2023-01-10T18:09:19.341Z,4.90
2023-01-10T18:11:49.575Z,5.68
2023-01-10T18:14:35.711Z,3.95
2023-01-10T18:17:05.414Z,3.00
2023-01-10T18:19:34.697Z,2.83
2023-01-10T18:22:22.315Z,2.35
2023-01-10T18:27:17.081Z,2.90
2023-01-10T18:29:46.136Z,3.53
2023-01-10T18:32:13.664Z,2.28
2023-01-10T18:34:41.054Z,2.88
2023-01-10T18:37:08.623Z,2.75
2023-01-10T18:39:36.070Z,1.98
2023-01-10T18:42:06.352Z,2.78
2023-01-10T18:44:33.997Z,2.85
2023-01-10T18:47:06.341Z,2.92
2023-01-10T18:49:33.698Z,1.73
2023-01-10T18:52:01.219Z,1.95
2023-01-10T18:54:28.897Z,2.97
2023-01-10T18:56:59.822Z,5.80
2023-01-10T18:59:27.494Z,4.20
2023-01-10T19:01:58.158Z,4.13
2023-01-10T19:04:28.751Z,2.67
2023-01-10T19:06:59.103Z,7.50
2023-01-10T19:09:26.515Z,4.15
2023-01-10T19:11:53.949Z,2.95
2023-01-10T19:14:24.181Z,1.42
2023-01-10T19:16:51.750Z,2.25
2023-01-10T19:19:19.204Z,2.63
2023-01-10T19:21:47.913Z,2.33
2023-01-10T19:24:23.332Z,2.58
2023-01-10T19:26:50.913Z,6.03
2023-01-10T19:29:18.415Z,2.70
2023-01-10T19:31:48.270Z,4.60
2023-01-10T19:34:15.972Z,4.20
2023-01-10T19:36:51.170Z,2.17
2023-01-10T19:39:18.704Z,2.28
2023-01-10T19:41:51.899Z,1.58
2023-01-10T19:44:20.378Z,1.85
2023-01-10T19:46:54.008Z,1.90
2023-01-10T19:49:24.901Z,1.60
2023-01-10T19:51:56.052Z,2.10
2023-01-10T19:54:26.769Z,2.08
2023-01-10T19:56:54.217Z,1.98
2023-01-10T19:59:21.581Z,1.60
2023-01-10T20:02:06.984Z,2.00
2023-01-10T20:04:34.374Z,1.85
2023-01-10T20:07:03.194Z,1.67
2023-01-10T20:09:30.664Z,1.52
2023-01-10T20:11:58.027Z,1.33
2023-01-10T20:14:25.746Z,2.50
2023-01-10T20:16:53.231Z,1.63
2023-01-10T20:19:21.635Z,1.05
2023-01-10T20:21:49.023Z,1.67
2023-01-10T20:24:18.884Z,1.67
2023-01-10T20:26:47.032Z,2.00
2023-01-10T20:29:14.492Z,2.00
2023-01-10T20:31:42.823Z,1.67
2023-01-10T20:34:10.257Z,1.90
2023-01-10T20:36:37.603Z,2.15
2023-01-10T20:39:05.024Z,1.92
2023-01-10T20:41:33.725Z,2.60
2023-01-10T20:44:01.094Z,1.80
2023-01-10T20:46:30.620Z,1.77
2023-01-10T20:49:01.401Z,1.50
2023-01-10T20:51:36.309Z,1.63
2023-01-10T20:54:05.814Z,2.05
2023-01-10T20:56:35.198Z,1.70
2023-01-10T20:59:02.928Z,1.77
2023-01-10T21:01:35.434Z,1.40
2023-01-10T21:04:07.083Z,1.75
2023-01-10T21:06:34.692Z,1.13
2023-01-10T21:09:02.352Z,1.42
2023-01-10T21:11:29.741Z,1.17
2023-01-10T21:13:58.427Z,1.42
2023-01-10T21:16:25.954Z,1.45
2023-01-10T21:18:53.436Z,1.10
2023-01-10T21:21:22.591Z,1.10
2023-01-10T21:23:50.264Z,1.33
2023-01-10T21:26:17.716Z,1.20
2023-01-10T21:28:46.634Z,1.48
2023-01-10T21:31:16.717Z,1.55
2023-01-10T21:33:44.154Z,1.20
2023-01-10T21:36:13.278Z,1.33
2023-01-10T21:38:41.365Z,1.08
2023-01-10T21:41:09.529Z,1.30
2023-01-10T21:43:37.002Z,1.10
2023-01-10T21:46:04.669Z,1.25
2023-01-10T21:48:33.449Z,2.85
2023-01-10T21:51:00.821Z,6.82
2023-01-10T21:53:29.117Z,2.72
2023-01-10T21:55:58.043Z,2.33
2023-01-10T21:58:25.426Z,4.40
2023-01-10T22:00:55.054Z,3.53
2023-01-10T22:03:22.481Z,1.80
2023-01-10T22:05:51.200Z,1.20
2023-01-10T22:08:18.646Z,1.23
2023-01-10T22:10:46.170Z,1.08
2023-01-10T22:13:13.566Z,1.17
2023-01-10T22:15:41.093Z,1.00
2023-01-10T22:18:08.483Z,1.27
2023-01-10T22:20:35.873Z,1.10
2023-01-10T22:23:04.592Z,1.20
2023-01-10T22:25:35.591Z,1.30
2023-01-10T22:28:05.996Z,1.08
2023-01-10T22:30:37.826Z,1.52
2023-01-10T22:33:05.282Z,0.63
2023-01-10T22:35:33.128Z,1.10
2023-01-10T22:40:29.302Z,0.98
2023-01-10T22:42:56.651Z,0.93
2023-01-10T22:45:24.769Z,0.88
2023-01-10T22:47:52.189Z,0.80
2023-01-10T22:50:19.689Z,0.90
2023-01-10T22:52:48.690Z,1.15
2023-01-10T22:55:16.214Z,0.68
2023-01-10T22:57:48.143Z,0.95
2023-01-10T23:00:19.659Z,0.85
2023-01-10T23:02:47.128Z,1.13
2023-01-10T23:05:22.239Z,0.80
2023-01-10T23:07:52.404Z,1.27
2023-01-10T23:10:29.870Z,1.00
2023-01-10T23:13:02.006Z,0.90
2023-01-10T23:15:31.469Z,0.88
2023-01-10T23:18:01.912Z,1.08
2023-01-10T23:20:29.304Z,0.82
2023-01-10T23:22:58.767Z,0.60
2023-01-10T23:25:28.802Z,0.65
2023-01-10T23:27:57.343Z,0.70
2023-01-10T23:30:26.771Z,0.68
2023-01-10T23:32:57.475Z,0.80
2023-01-10T23:35:25.114Z,1.02
2023-01-10T23:37:52.670Z,0.93
2023-01-10T23:40:23.055Z,0.57
2023-01-10T23:42:53.321Z,0.57
2023-01-10T23:45:25.668Z,0.82
2023-01-10T23:47:56.868Z,0.52
2023-01-10T23:50:26.404Z,0.50
2023-01-10T23:52:53.938Z,2.47
2023-01-10T23:55:31.329Z,0.75
2023-01-10T23:58:09.849Z,0.80
